Time;durP1;ratioP1;P1;durP2;ratioP2;P2;SDS_P1;SDS_P2;PMS_P1;PMS_P2;Temp;Humidity;BMP_temperature;BMP_pressure;BME280_temperature;BME280_humidity;BME280_pressure;Samples;Min_cycle;Max_cycle;Signal;HPM_P1;HPM_P2
2021/03/18 09:02:18;;;;;;;3.50;0.70;;;10.10;99.90;;;;;;3863423;23;20249;-68
2021/03/18 09:04:46;;;;;;;1.83;0.60;;;10.20;99.90;;;;;;4937832;29;20253;-68
2021/03/18 09:07:15;;;;;;;1.10;0.60;;;10.30;99.90;;;;;;4933803;29;20240;-69
2021/03/18 09:09:42;;;;;;;2.53;0.77;;;10.50;99.90;;;;;;4937040;29;20590;-67
2021/03/18 09:12:10;;;;;;;1.33;0.50;;;10.50;99.90;;;;;;4937259;29;20213;-67
2021/03/18 09:14:37;;;;;;;4.83;0.60;;;10.70;99.90;;;;;;4936783;29;20212;-67
2021/03/18 09:17:05;;;;;;;1.73;0.60;;;10.80;99.90;;;;;;4937199;29;20223;-68
2021/03/18 09:19:32;;;;;;;2.43;0.80;;;10.80;99.90;;;;;;4936937;29;20231;-68
2021/03/18 09:21:58;;;;;;;2.07;1.00;;;10.70;99.90;;;;;;4936662;29;20241;-68
2021/03/18 09:24:33;;;;;;;2.10;0.60;;;10.80;99.90;;;;;;4937044;29;20234;-68
2021/03/18 09:27:04;;;;;;;3.20;0.60;;;10.80;99.90;;;;;;4936665;29;20208;-69
2021/03/18 09:29:30;;;;;;;3.37;1.10;;;10.90;99.90;;;;;;4935988;29;20236;-70
2021/03/18 09:32:02;;;;;;;2.30;0.80;;;11.00;99.90;;;;;;4936440;29;20213;-69
2021/03/18 09:34:32;;;;;;;4.00;1.10;;;11.20;99.90;;;;;;4936817;29;20264;-69
2021/03/18 09:36:58;;;;;;;4.57;1.03;;;11.20;99.90;;;;;;4935633;29;20209;-69
2021/03/18 09:39:24;;;;;;;6.27;1.33;;;11.20;99.90;;;;;;4936511;29;20233;-70
2021/03/18 09:41:51;;;;;;;7.40;1.00;;;11.20;99.90;;;;;;4936134;29;20248;-69
2021/03/18 09:44:20;;;;;;;2.17;0.67;;;11.20;99.90;;;;;;4936129;29;20213;-69
2021/03/18 09:46:48;;;;;;;4.60;0.80;;;11.20;99.90;;;;;;4936584;29;20623;-68
2021/03/18 09:49:15;;;;;;;5.77;1.40;;;10.80;99.90;;;;;;4937199;29;20236;-68
2021/03/18 09:51:44;;;;;;;4.70;0.97;;;10.40;99.90;;;;;;4937706;29;20208;-68
2021/03/18 09:54:13;;;;;;;5.47;1.07;;;10.40;99.90;;;;;;4934358;29;20204;-69
2021/03/18 09:56:41;;;;;;;5.03;1.33;;;10.30;99.90;;;;;;4938976;29;20209;-68
2021/03/18 09:59:10;;;;;;;7.73;1.40;;;10.10;99.90;;;;;;4937194;29;20738;-71
2021/03/18 10:01:37;;;;;;;6.60;1.50;;;10.20;99.90;;;;;;4937030;29;20271;-73
2021/03/18 10:04:05;;;;;;;5.23;1.17;;;10.10;99.90;;;;;;4936379;29;20223;-69
2021/03/18 10:06:33;;;;;;;5.20;1.20;;;10.10;99.90;;;;;;4937177;29;20263;-68
2021/03/18 10:09:19;;;;;;;7.33;1.07;;;9.90;99.90;;;;;;4937021;29;20229;-69
2021/03/18 10:11:47;;;;;;;4.87;1.23;;;9.90;99.90;;;;;;4937183;29;20596;-68
2021/03/18 10:14:15;;;;;;;6.83;1.70;;;9.80;99.90;;;;;;4936935;29;20205;-68
2021/03/18 10:16:41;;;;;;;9.27;1.40;;;9.80;99.90;;;;;;4936484;29;20280;-69
2021/03/18 10:19:09;;;;;;;3.37;1.60;;;9.80;99.90;;;;;;4936289;29;20715;-71
2021/03/18 10:21:35;;;;;;;4.13;1.40;;;9.70;99.90;;;;;;4936848;29;20240;-74
2021/03/18 10:24:02;;;;;;;8.30;1.70;;;9.70;99.90;;;;;;4936507;29;20583;-69
2021/03/18 10:26:29;;;;;;;4.63;1.80;;;9.60;99.90;;;;;;4936469;29;20220;-75
2021/03/18 10:28:59;;;;;;;6.30;1.80;;;9.60;99.90;;;;;;4936103;29;20233;-68
2021/03/18 10:31:25;;;;;;;3.23;1.40;;;9.70;99.90;;;;;;4936607;29;20209;-69
2021/03/18 10:33:52;;;;;;;4.50;2.47;;;9.80;99.90;;;;;;4932602;29;20212;-72
2021/03/18 10:36:32;;;;;;;5.67;1.70;;;9.60;99.90;;;;;;4935434;29;20213;-70
2021/03/18 10:38:59;;;;;;;6.27;2.00;;;9.50;99.90;;;;;;4935056;29;20264;-68
2021/03/18 10:41:25;;;;;;;10.20;2.10;;;9.50;99.90;;;;;;4935005;29;20237;-68
2021/03/18 10:43:52;;;;;;;9.47;1.40;;;9.30;99.90;;;;;;4935274;29;20209;-69
2021/03/18 10:46:26;;;;;;;7.67;1.80;;;9.40;99.90;;;;;;4935072;29;20216;-68
2021/03/18 10:48:53;;;;;;;6.13;1.50;;;9.40;99.90;;;;;;4934192;29;20232;-69
2021/03/18 10:51:20;;;;;;;6.87;1.77;;;9.50;99.90;;;;;;4934746;29;20209;-68
2021/03/18 10:53:47;;;;;;;6.00;2.10;;;9.70;99.90;;;;;;4934488;29;20268;-67
2021/03/18 10:56:17;;;;;;;12.00;2.10;;;9.80;99.90;;;;;;4934287;29;20212;-67
2021/03/18 10:58:44;;;;;;;4.07;1.60;;;9.90;99.90;;;;;;4934955;29;20262;-69
2021/03/18 11:01:13;;;;;;;2.90;1.47;;;10.00;99.90;;;;;;4935189;29;20857;-68
2021/03/18 11:03:42;;;;;;;6.77;2.27;;;9.90;99.90;;;;;;4933972;29;20217;-69
2021/03/18 11:06:19;;;;;;;2.63;1.23;;;9.90;99.90;;;;;;4933811;29;20217;-70
2021/03/18 11:08:47;;;;;;;3.57;1.53;;;10.20;99.90;;;;;;4934029;29;20224;-68
2021/03/18 11:11:17;;;;;;;5.63;1.83;;;10.30;99.90;;;;;;4934325;29;20211;-69
2021/03/18 11:13:44;;;;;;;7.10;1.83;;;10.50;99.90;;;;;;4934457;29;20226;-70
2021/03/18 11:16:12;;;;;;;5.53;2.20;;;10.80;99.90;;;;;;4934808;29;20216;-68
2021/03/18 11:18:41;;;;;;;7.17;1.87;;;11.00;99.90;;;;;;4933764;29;20229;-70
2021/03/18 11:21:20;;;;;;;7.33;2.10;;;11.10;99.90;;;;;;4934535;29;20264;-69
2021/03/18 11:23:48;;;;;;;6.07;2.07;;;11.10;99.90;;;;;;4934610;29;20208;-69
2021/03/18 11:26:17;;;;;;;7.40;2.10;;;11.00;99.90;;;;;;4933824;29;20209;-69
2021/03/18 11:28:49;;;;;;;6.17;2.40;;;10.70;99.90;;;;;;4934210;29;20229;-69
2021/03/18 11:31:18;;;;;;;8.07;2.23;;;10.60;99.90;;;;;;4934500;29;20217;-67
2021/03/18 11:33:44;;;;;;;6.87;2.00;;;10.20;99.90;;;;;;4933883;29;20209;-68
2021/03/18 11:36:10;;;;;;;7.00;2.37;;;10.40;99.90;;;;;;4934280;29;20219;-68
2021/03/18 11:38:37;;;;;;;10.30;2.50;;;10.30;99.90;;;;;;4934323;29;20237;-69
2021/03/18 11:41:03;;;;;;;6.73;2.00;;;10.10;99.90;;;;;;4933578;29;20225;-68
2021/03/18 11:43:30;;;;;;;5.93;1.83;;;10.20;99.90;;;;;;4934326;29;20221;-72
2021/03/18 11:45:57;;;;;;;7.43;2.30;;;10.20;99.90;;;;;;4933608;29;20205;-68
2021/03/18 11:48:25;;;;;;;5.37;2.30;;;10.20;99.90;;;;;;4933968;29;20223;-68
2021/03/18 11:50:52;;;;;;;7.87;2.50;;;10.20;99.90;;;;;;4934272;29;20224;-68
2021/03/18 11:53:19;;;;;;;10.93;2.50;;;10.20;99.90;;;;;;4934315;29;20217;-68
2021/03/18 11:55:46;;;;;;;6.03;1.83;;;10.30;99.90;;;;;;4933702;29;20216;-68
2021/03/18 11:58:12;;;;;;;8.40;2.33;;;10.10;99.90;;;;;;4933703;29;20212;-68
2021/03/18 12:00:39;;;;;;;9.67;2.50;;;10.00;99.90;;;;;;4934181;29;20209;-68
2021/03/18 12:03:07;;;;;;;4.90;2.63;;;10.00;99.90;;;;;;4933750;29;20220;-68
2021/03/18 12:05:34;;;;;;;7.77;2.50;;;9.90;99.90;;;;;;4934639;29;20213;-68
2021/03/18 12:08:02;;;;;;;9.30;2.80;;;9.70;99.90;;;;;;4934418;29;20216;-68
2021/03/18 12:10:29;;;;;;;4.97;2.33;;;9.80;99.90;;;;;;4933873;29;20783;-68
2021/03/18 12:12:55;;;;;;;9.57;3.03;;;9.70;99.90;;;;;;4934246;29;20224;-68
2021/03/18 12:15:22;;;;;;;4.97;2.20;;;9.60;99.90;;;;;;4934478;29;20222;-67
2021/03/18 12:17:49;;;;;;;6.87;2.70;;;9.50;99.90;;;;;;4935669;29;20699;-68
2021/03/18 12:20:17;;;;;;;8.87;2.70;;;9.40;99.90;;;;;;4937852;29;20884;-68
2021/03/18 12:22:45;;;;;;;7.10;3.40;;;9.30;99.90;;;;;;4937628;29;20232;-68
2021/03/18 12:25:13;;;;;;;10.33;2.70;;;9.10;99.90;;;;;;4937316;29;20212;-68
2021/03/18 12:27:40;;;;;;;6.87;2.70;;;9.20;99.90;;;;;;4937637;29;20220;-66
2021/03/18 12:30:09;;;;;;;8.63;2.87;;;9.30;99.90;;;;;;4937444;29;20237;-68
2021/03/18 12:32:35;;;;;;;7.33;2.57;;;9.40;99.90;;;;;;4936853;29;20664;-68
2021/03/18 12:35:03;;;;;;;9.00;2.77;;;9.70;99.90;;;;;;4937737;29;20212;-68
2021/03/18 12:37:29;;;;;;;8.50;2.47;;;9.80;99.90;;;;;;4937548;29;20209;-68
2021/03/18 12:39:56;;;;;;;5.03;2.77;;;9.90;99.90;;;;;;4937352;29;20283;-68
2021/03/18 12:42:23;;;;;;;7.63;2.93;;;10.00;99.90;;;;;;4937270;29;20236;-68
2021/03/18 12:44:49;;;;;;;5.60;2.43;;;9.90;99.90;;;;;;4937473;29;20676;-68
2021/03/18 12:47:16;;;;;;;6.83;2.80;;;10.10;99.90;;;;;;4937350;29;20213;-68
2021/03/18 12:49:42;;;;;;;12.23;3.60;;;10.10;99.90;;;;;;4937312;29;20228;-68
2021/03/18 12:52:08;;;;;;;10.40;3.10;;;10.40;99.90;;;;;;4937381;29;20219;-68
2021/03/18 12:54:35;;;;;;;12.77;3.50;;;10.40;99.90;;;;;;4936654;29;20212;-66
2021/03/18 12:57:02;;;;;;;14.53;3.83;;;10.50;99.90;;;;;;4937241;29;20208;-68
2021/03/18 12:59:29;;;;;;;6.37;3.00;;;10.60;99.90;;;;;;4937305;29;20237;-68
2021/03/18 13:01:55;;;;;;;7.57;3.40;;;10.40;99.90;;;;;;4933770;29;20244;-67
2021/03/18 13:04:21;;;;;;;6.00;3.00;;;10.60;99.90;;;;;;4935179;29;20275;-74
2021/03/18 13:06:50;;;;;;;9.07;3.30;;;10.70;99.90;;;;;;4937499;29;20228;-71
2021/03/18 13:09:16;;;;;;;8.53;2.47;;;10.80;99.90;;;;;;4936241;29;20727;-68
2021/03/18 13:11:42;;;;;;;14.30;3.63;;;10.90;99.90;;;;;;4935858;29;20221;-70
2021/03/18 13:14:10;;;;;;;8.50;3.50;;;10.90;99.90;;;;;;4933879;29;20212;-71
2021/03/18 13:16:36;;;;;;;12.63;2.77;;;11.00;99.90;;;;;;4937988;29;20216;-71
2021/03/18 13:19:02;;;;;;;7.57;2.60;;;10.90;99.90;;;;;;4936405;29;20229;-69
2021/03/18 13:21:28;;;;;;;7.53;3.13;;;11.00;99.90;;;;;;4937025;29;20236;-66
2021/03/18 13:23:54;;;;;;;10.40;2.30;;;10.90;99.90;;;;;;4935617;29;20209;-67
2021/03/18 13:26:21;;;;;;;13.53;3.47;;;10.80;99.90;;;;;;4936276;29;20208;-67
2021/03/18 13:28:47;;;;;;;9.70;2.90;;;10.90;99.90;;;;;;4936044;29;20233;-67
2021/03/18 13:31:14;;;;;;;8.90;3.57;;;10.80;99.90;;;;;;4936261;29;20224;-67
2021/03/18 13:33:40;;;;;;;6.70;3.03;;;10.60;99.90;;;;;;4936586;29;20205;-67
2021/03/18 13:36:07;;;;;;;8.63;2.60;;;10.50;99.90;;;;;;4936746;29;20213;-67
2021/03/18 13:38:34;;;;;;;10.70;2.50;;;10.30;99.90;;;;;;4935942;29;20228;-66
2021/03/18 13:41:01;;;;;;;5.57;2.73;;;10.40;99.90;;;;;;4936538;29;20236;-67
2021/03/18 13:43:27;;;;;;;9.93;2.77;;;10.40;99.90;;;;;;4936196;29;20209;-67
2021/03/18 13:45:54;;;;;;;7.33;2.70;;;10.40;99.90;;;;;;4935359;29;20663;-68
2021/03/18 13:48:22;;;;;;;12.60;2.27;;;10.10;99.90;;;;;;4936237;29;20219;-68
2021/03/18 13:50:52;;;;;;;6.70;2.30;;;10.10;99.90;;;;;;4936173;29;20217;-68
2021/03/18 13:53:18;;;;;;;6.37;2.53;;;10.30;99.90;;;;;;4935755;29;20212;-67
2021/03/18 13:55:45;;;;;;;6.70;2.70;;;10.60;99.90;;;;;;4936692;29;20670;-68
2021/03/18 13:58:12;;;;;;;6.70;2.40;;;10.80;99.90;;;;;;4936633;29;20217;-68
2021/03/18 14:00:38;;;;;;;7.40;2.13;;;11.10;99.90;;;;;;4935253;29;20695;-68
2021/03/18 14:03:06;;;;;;;6.07;2.33;;;11.20;99.90;;;;;;4935722;29;20216;-69
2021/03/18 14:05:34;;;;;;;5.40;2.20;;;11.30;99.90;;;;;;4936001;29;20205;-70
2021/03/18 14:08:00;;;;;;;8.43;2.57;;;11.30;99.90;;;;;;4935606;29;20213;-69
2021/03/18 14:10:27;;;;;;;5.70;2.27;;;10.90;99.90;;;;;;4937077;29;20233;-69
2021/03/18 14:12:54;;;;;;;3.87;2.10;;;11.10;99.90;;;;;;4937244;29;20212;-69
2021/03/18 14:15:22;;;;;;;7.57;2.70;;;11.20;99.90;;;;;;4937226;29;20212;-68
2021/03/18 14:17:49;;;;;;;7.57;2.47;;;11.30;99.90;;;;;;4936797;29;20323;-69
2021/03/18 14:20:17;;;;;;;6.77;2.93;;;11.30;99.90;;;;;;4936939;29;20235;-69
2021/03/18 14:22:44;;;;;;;9.93;2.50;;;11.20;99.90;;;;;;4937062;29;20253;-68
2021/03/18 14:25:12;;;;;;;7.07;2.23;;;11.10;99.90;;;;;;4937120;29;20205;-69
2021/03/18 14:27:39;;;;;;;5.40;2.27;;;10.80;99.90;;;;;;4936859;29;20212;-69
2021/03/18 14:30:07;;;;;;;5.53;2.30;;;10.80;99.90;;;;;;4936864;29;20232;-69
2021/03/18 14:32:34;;;;;;;7.57;2.60;;;10.90;99.90;;;;;;4936833;29;20216;-70
2021/03/18 14:35:00;;;;;;;9.20;2.80;;;11.00;99.90;;;;;;4936761;29;20264;-69
2021/03/18 14:37:26;;;;;;;4.83;2.37;;;11.00;99.90;;;;;;4937044;29;20213;-70
2021/03/18 14:39:53;;;;;;;9.83;2.37;;;11.00;99.90;;;;;;4936406;29;20229;-69
2021/03/18 14:42:19;;;;;;;4.93;2.30;;;10.80;99.90;;;;;;4935976;29;20581;-70
2021/03/18 14:44:45;;;;;;;5.70;2.57;;;10.60;99.90;;;;;;4936574;29;20204;-69
2021/03/18 14:47:12;;;;;;;6.60;2.40;;;10.50;99.90;;;;;;4936337;29;20216;-70
2021/03/18 14:49:39;;;;;;;7.20;2.80;;;10.40;99.90;;;;;;4936245;29;20233;-70
2021/03/18 14:52:06;;;;;;;7.27;3.13;;;10.20;99.90;;;;;;4936510;29;20209;-70
2021/03/18 14:54:32;;;;;;;9.83;3.07;;;10.20;99.90;;;;;;4936375;29;20212;-69
2021/03/18 14:56:59;;;;;;;8.33;2.53;;;10.20;99.90;;;;;;4936403;29;20672;-70
2021/03/18 14:59:26;;;;;;;4.37;2.33;;;10.10;99.90;;;;;;4936933;29;20239;-71
2021/03/18 15:01:53;;;;;;;4.73;2.47;;;10.10;99.90;;;;;;4934364;29;20243;-79
2021/03/18 15:04:19;;;;;;;5.63;2.33;;;10.20;99.90;;;;;;4936093;29;20304;-70
2021/03/18 15:06:45;;;;;;;5.70;2.20;;;10.20;99.90;;;;;;4936164;29;20219;-72
2021/03/18 15:09:12;;;;;;;4.63;2.60;;;10.10;99.90;;;;;;4936302;29;20233;-71
2021/03/18 15:11:38;;;;;;;6.67;2.57;;;10.10;99.90;;;;;;4935990;29;20213;-72
2021/03/18 15:14:05;;;;;;;5.40;2.53;;;9.90;99.90;;;;;;4935756;29;20209;-69
2021/03/18 15:16:31;;;;;;;4.40;2.67;;;9.90;99.90;;;;;;4935438;29;20215;-68
2021/03/18 15:18:57;;;;;;;6.53;2.33;;;9.70;99.90;;;;;;4935884;29;20232;-68
2021/03/18 15:21:23;;;;;;;3.50;2.27;;;9.70;99.90;;;;;;4935885;29;20237;-69
2021/03/18 15:23:50;;;;;;;3.70;1.90;;;9.50;99.90;;;;;;4935906;29;20672;-73
2021/03/18 15:26:17;;;;;;;3.30;2.00;;;9.50;99.90;;;;;;4936203;29;20213;-72
2021/03/18 15:28:43;;;;;;;4.57;1.60;;;9.30;99.90;;;;;;4935576;29;20592;-70
2021/03/18 15:31:10;;;;;;;27.43;9.80;;;9.30;99.90;;;;;;4935443;29;20212;-69
2021/03/18 15:33:37;;;;;;;4.97;2.00;;;9.30;99.90;;;;;;4935746;29;20204;-67
2021/03/18 15:36:03;;;;;;;3.90;1.67;;;9.20;99.90;;;;;;4935245;29;20703;-68
2021/03/18 15:38:30;;;;;;;3.60;1.67;;;9.10;99.90;;;;;;4935676;29;20711;-64
2021/03/18 15:40:56;;;;;;;2.07;1.20;;;9.20;99.90;;;;;;4935339;29;20694;-66
2021/03/18 15:43:22;;;;;;;2.57;1.70;;;9.20;99.90;;;;;;4935909;29;20212;-66
2021/03/18 15:45:49;;;;;;;3.70;1.37;;;9.20;99.90;;;;;;4936300;29;20230;-67
2021/03/18 15:48:16;;;;;;;2.07;1.30;;;9.00;99.90;;;;;;4935302;29;20710;-67
2021/03/18 15:50:44;;;;;;;1.67;0.90;;;9.00;99.90;;;;;;4935499;29;20209;-68
2021/03/18 15:53:11;;;;;;;2.60;1.40;;;8.90;99.90;;;;;;4938398;29;20243;-68
2021/03/18 15:55:37;;;;;;;2.07;1.33;;;9.00;99.90;;;;;;4939490;29;20291;-67
2021/03/18 15:58:04;;;;;;;1.40;1.00;;;9.20;99.90;;;;;;4939194;29;20230;-66
2021/03/18 16:00:32;;;;;;;1.43;1.00;;;9.30;99.90;;;;;;4939474;29;20233;-68
2021/03/18 16:02:58;;;;;;;1.83;1.10;;;9.30;99.90;;;;;;4920167;29;20236;-65
2021/03/18 16:05:26;;;;;;;2.97;1.40;;;9.30;99.90;;;;;;4920499;29;20220;-66
2021/03/18 16:07:55;;;;;;;1.93;1.13;;;9.30;99.90;;;;;;4920368;29;20236;-65
2021/03/18 16:10:22;;;;;;;2.43;1.27;;;9.30;99.90;;;;;;4920259;29;20221;-66
2021/03/18 16:12:48;;;;;;;3.03;1.30;;;9.30;99.90;;;;;;4937889;29;20288;-68
2021/03/18 16:15:15;;;;;;;3.63;2.13;;;9.20;99.90;;;;;;4939330;29;20695;-67
2021/03/18 16:17:41;;;;;;;2.97;1.40;;;9.20;99.90;;;;;;4939218;29;20216;-66
2021/03/18 16:20:09;;;;;;;2.57;1.47;;;9.10;99.90;;;;;;4939187;29;20569;-69
2021/03/18 16:22:36;;;;;;;4.73;1.30;;;8.90;99.90;;;;;;4938717;29;20241;-65
2021/03/18 16:25:06;;;;;;;4.60;1.83;;;8.90;99.90;;;;;;4938950;29;20213;-67
2021/03/18 16:27:32;;;;;;;3.23;1.60;;;9.00;99.90;;;;;;4939005;29;20679;-67
2021/03/18 16:29:59;;;;;;;5.07;1.40;;;8.90;99.90;;;;;;4939143;29;20283;-68
2021/03/18 16:32:25;;;;;;;2.30;1.17;;;8.90;99.90;;;;;;4938616;29;20557;-69
2021/03/18 16:34:51;;;;;;;3.53;1.40;;;8.90;99.90;;;;;;4938691;29;20217;-66
2021/03/18 16:37:20;;;;;;;3.27;1.50;;;9.00;99.90;;;;;;4938654;29;20567;-66
2021/03/18 16:39:48;;;;;;;2.17;1.30;;;9.10;99.90;;;;;;4938478;29;20233;-66
2021/03/18 16:42:14;;;;;;;2.70;1.10;;;9.00;99.90;;;;;;4938791;29;20583;-67
2021/03/18 16:44:41;;;;;;;2.00;1.20;;;9.20;99.90;;;;;;4938748;29;20220;-69
2021/03/18 16:47:07;;;;;;;2.93;1.50;;;9.10;99.90;;;;;;4939094;29;20208;-66
2021/03/18 16:49:33;;;;;;;3.40;1.33;;;9.30;99.90;;;;;;4938461;29;20244;-67
2021/03/18 16:51:59;;;;;;;4.90;1.70;;;9.30;99.90;;;;;;4938072;29;20664;-68
2021/03/18 16:54:25;;;;;;;5.80;3.00;;;9.30;99.90;;;;;;4938216;29;20731;-68
2021/03/18 16:56:54;;;;;;;4.90;1.80;;;9.40;99.90;;;;;;4938391;29;20208;-66
2021/03/18 16:59:20;;;;;;;3.20;1.60;;;9.30;99.90;;;;;;4938322;29;20244;-65
2021/03/18 17:01:47;;;;;;;3.83;1.50;;;9.30;99.90;;;;;;4938050;29;20228;-67
2021/03/18 17:04:13;;;;;;;5.87;1.60;;;9.30;99.90;;;;;;4936953;29;20225;-67
2021/03/18 17:06:39;;;;;;;2.13;1.40;;;9.30;99.90;;;;;;4938522;29;20209;-67
2021/03/18 17:09:07;;;;;;;8.23;2.20;;;9.30;99.90;;;;;;4938033;29;20229;-67
2021/03/18 17:11:34;;;;;;;6.93;2.93;;;9.10;99.90;;;;;;4938096;29;20205;-66
2021/03/18 17:14:01;;;;;;;3.37;1.27;;;9.00;99.90;;;;;;4937515;29;20698;-67
2021/03/18 17:16:28;;;;;;;2.00;1.10;;;8.80;99.90;;;;;;4938128;29;20208;-67
2021/03/18 17:18:54;;;;;;;6.97;1.33;;;8.60;99.90;;;;;;4937752;29;20229;-68
2021/03/18 17:21:20;;;;;;;3.37;0.97;;;8.60;99.90;;;;;;4937598;29;20244;-66
2021/03/18 17:23:47;;;;;;;3.90;1.00;;;8.60;99.90;;;;;;4937730;29;20601;-67
2021/03/18 17:26:13;;;;;;;3.90;1.20;;;8.40;99.90;;;;;;4937826;29;20612;-66
2021/03/18 17:28:40;;;;;;;5.23;1.27;;;8.40;99.90;;;;;;4937678;29;20240;-67
2021/03/18 17:31:08;;;;;;;2.57;0.97;;;8.40;99.90;;;;;;4937348;29;20209;-66
2021/03/18 17:33:35;;;;;;;1.57;1.00;;;8.20;99.90;;;;;;4937661;29;20213;-67
2021/03/18 17:36:03;;;;;;;2.00;1.17;;;8.10;99.90;;;;;;4937975;29;20209;-67
2021/03/18 17:38:29;;;;;;;4.03;0.93;;;8.10;99.90;;;;;;4937531;29;20228;-67
2021/03/18 17:40:56;;;;;;;5.77;0.87;;;8.00;99.90;;;;;;4937316;29;20672;-67
2021/03/18 17:43:23;;;;;;;1.50;0.93;;;8.00;99.90;;;;;;4937453;29;20695;-67
2021/03/18 17:45:51;;;;;;;4.00;0.90;;;8.10;99.90;;;;;;4937092;29;20209;-67
2021/03/18 17:48:19;;;;;;;4.07;0.80;;;8.10;99.90;;;;;;4936693;29;20209;-67
2021/03/18 17:50:48;;;;;;;3.20;1.00;;;8.10;99.90;;;;;;4936776;29;20668;-67
2021/03/18 17:53:16;;;;;;;3.97;1.33;;;8.10;99.90;;;;;;4936760;29;20676;-67
2021/03/18 17:55:46;;;;;;;1.60;0.87;;;8.10;99.90;;;;;;4936794;29;20201;-67
2021/03/18 17:58:12;;;;;;;2.37;1.37;;;8.10;99.90;;;;;;4936863;29;20244;-68
2021/03/18 18:00:39;;;;;;;2.53;1.23;;;8.00;99.90;;;;;;4936754;29;20209;-68
2021/03/18 18:03:06;;;;;;;2.20;0.93;;;8.00;99.90;;;;;;4936309;29;20237;-67
2021/03/18 18:05:34;;;;;;;1.70;0.90;;;8.00;99.90;;;;;;4936614;29;20215;-67
2021/03/18 18:08:01;;;;;;;4.60;1.10;;;8.00;99.90;;;;;;4936616;29;20549;-67
2021/03/18 18:10:30;;;;;;;4.43;1.10;;;8.00;99.90;;;;;;4936416;29;20225;-67
2021/03/18 18:12:57;;;;;;;4.53;1.17;;;8.10;99.90;;;;;;4935124;29;20244;-67
2021/03/18 18:15:23;;;;;;;4.33;1.30;;;8.00;99.90;;;;;;4935705;29;20212;-68
2021/03/18 18:17:49;;;;;;;2.20;0.90;;;8.00;99.90;;;;;;4936092;29;20311;-68
2021/03/18 18:20:16;;;;;;;2.30;0.97;;;8.00;99.90;;;;;;4936344;29;20229;-68
2021/03/18 18:22:43;;;;;;;1.77;1.10;;;8.00;99.90;;;;;;4935996;29;20236;-67
2021/03/18 18:25:12;;;;;;;1.57;0.80;;;7.90;99.90;;;;;;4936781;29;20212;-67
2021/03/18 18:27:38;;;;;;;2.33;0.90;;;7.80;99.90;;;;;;4933966;29;20217;-67
2021/03/18 18:30:07;;;;;;;2.30;0.80;;;7.70;99.90;;;;;;4936723;29;20233;-68
2021/03/18 18:32:34;;;;;;;1.97;0.87;;;7.80;99.90;;;;;;4935440;29;20735;-67
2021/03/18 18:35:02;;;;;;;4.33;0.53;;;7.70;99.90;;;;;;4936376;29;20217;-67
2021/03/18 18:37:29;;;;;;;1.30;0.60;;;7.60;99.90;;;;;;4936643;29;20209;-67
2021/03/18 18:39:56;;;;;;;1.90;0.87;;;7.70;99.90;;;;;;4936570;29;20225;-67
2021/03/18 18:42:22;;;;;;;1.47;0.80;;;7.80;99.90;;;;;;4936621;29;20236;-67
2021/03/18 18:44:48;;;;;;;1.67;0.90;;;7.80;99.90;;;;;;4936566;29;20213;-67
2021/03/18 18:47:14;;;;;;;1.90;0.80;;;7.60;99.90;;;;;;4936517;29;20212;-67
2021/03/18 18:49:41;;;;;;;4.23;0.80;;;7.50;99.90;;;;;;4936549;29;20292;-67
2021/03/18 18:52:08;;;;;;;2.73;0.90;;;7.40;99.90;;;;;;4936446;29;20212;-67
2021/03/18 18:54:34;;;;;;;3.87;1.60;;;7.50;99.90;;;;;;4936378;29;20215;-67
2021/03/18 18:57:02;;;;;;;2.07;0.93;;;7.50;99.90;;;;;;4937390;29;20217;-67
2021/03/18 18:59:29;;;;;;;1.93;1.03;;;7.50;99.90;;;;;;4936090;29;20232;-67
2021/03/18 19:01:55;;;;;;;3.07;1.07;;;7.50;99.90;;;;;;4935982;29;20712;-68
2021/03/18 19:04:21;;;;;;;3.33;1.40;;;7.50;99.90;;;;;;4935968;29;20220;-68
2021/03/18 19:06:48;;;;;;;3.03;1.40;;;7.50;99.90;;;;;;4936394;29;20204;-69
2021/03/18 19:09:14;;;;;;;2.00;1.30;;;7.50;99.90;;;;;;4933414;29;20679;-69
2021/03/18 19:11:40;;;;;;;3.30;1.43;;;7.40;99.90;;;;;;4935368;29;20212;-68
2021/03/18 19:14:07;;;;;;;3.27;2.13;;;7.40;99.90;;;;;;4935600;29;20209;-68
2021/03/18 19:16:34;;;;;;;4.03;1.30;;;7.40;99.90;;;;;;4935719;29;20212;-68
2021/03/18 19:19:00;;;;;;;1.80;0.93;;;7.40;99.90;;;;;;4934984;29;20232;-68
2021/03/18 19:21:26;;;;;;;6.30;1.27;;;7.50;99.90;;;;;;4935319;29;20672;-68
2021/03/18 19:23:54;;;;;;;2.70;1.10;;;7.40;99.90;;;;;;4935552;29;20213;-69
2021/03/18 19:26:22;;;;;;;2.27;1.03;;;7.50;99.90;;;;;;4934979;29;20280;-68
2021/03/18 19:28:48;;;;;;;2.07;1.20;;;7.40;99.90;;;;;;4935037;29;20291;-68
2021/03/18 19:31:16;;;;;;;3.87;1.13;;;7.40;99.90;;;;;;4935408;29;20212;-68
2021/03/18 19:33:42;;;;;;;2.63;1.50;;;7.50;99.90;;;;;;4935206;29;20755;-68
2021/03/18 19:36:09;;;;;;;3.10;1.37;;;7.50;99.90;;;;;;4934641;29;20212;-67
2021/03/18 19:38:36;;;;;;;3.90;1.57;;;7.50;99.90;;;;;;4935694;29;20235;-67
2021/03/18 19:41:07;;;;;;;2.60;1.50;;;7.60;99.90;;;;;;4935483;29;20212;-67
2021/03/18 19:43:34;;;;;;;2.73;1.57;;;7.60;99.90;;;;;;4935800;29;20205;-66
2021/03/18 19:46:01;;;;;;;2.43;1.20;;;7.50;99.90;;;;;;4935774;29;20212;-67
2021/03/18 19:48:28;;;;;;;2.77;1.30;;;7.50;99.90;;;;;;4935732;29;20212;-67
2021/03/18 19:50:56;;;;;;;3.03;1.50;;;7.60;99.90;;;;;;4935602;29;20217;-67
2021/03/18 19:53:24;;;;;;;3.40;1.40;;;7.60;99.90;;;;;;4935702;29;20216;-67
2021/03/18 19:55:51;;;;;;;3.20;1.37;;;7.60;99.90;;;;;;4936024;29;20208;-67
2021/03/18 19:58:18;;;;;;;3.17;1.33;;;7.60;99.90;;;;;;4936178;29;20216;-67
2021/03/18 20:00:45;;;;;;;3.87;1.70;;;7.50;99.90;;;;;;4936161;29;20209;-67
2021/03/18 20:03:12;;;;;;;3.20;1.50;;;7.50;99.90;;;;;;4935554;29;20248;-66
2021/03/18 20:05:39;;;;;;;2.10;1.57;;;7.50;99.90;;;;;;4935507;29;20212;-67
2021/03/18 20:08:06;;;;;;;3.93;1.40;;;7.60;99.90;;;;;;4935613;29;20276;-67
2021/03/18 20:10:33;;;;;;;2.40;1.60;;;7.50;99.90;;;;;;4935761;29;20232;-67
2021/03/18 20:13:00;;;;;;;3.37;1.93;;;7.50;99.90;;;;;;4938021;29;20219;-66
2021/03/18 20:15:27;;;;;;;4.30;1.77;;;7.50;99.90;;;;;;4935647;29;20213;-67
2021/03/18 20:17:53;;;;;;;2.50;1.70;;;7.50;99.90;;;;;;4935409;29;20629;-67
2021/03/18 20:20:21;;;;;;;3.40;1.77;;;7.60;99.90;;;;;;4935466;29;20251;-67
2021/03/18 20:22:49;;;;;;;2.97;1.93;;;7.60;99.90;;;;;;4935398;29;20233;-66
2021/03/18 20:25:16;;;;;;;3.37;1.67;;;7.60;99.90;;;;;;4935297;29;20211;-67
2021/03/18 20:27:44;;;;;;;3.63;2.00;;;7.70;99.90;;;;;;4935563;29;20212;-67
2021/03/18 20:30:14;;;;;;;3.23;1.67;;;7.70;99.90;;;;;;4935392;29;20229;-66
2021/03/18 20:32:40;;;;;;;5.03;1.80;;;7.70;99.90;;;;;;4935378;29;20216;-67
2021/03/18 20:35:07;;;;;;;2.37;1.70;;;7.60;99.90;;;;;;4935403;29;20217;-67
2021/03/18 20:37:34;;;;;;;6.40;2.30;;;7.70;99.90;;;;;;4936008;29;20568;-66
2021/03/18 20:40:01;;;;;;;4.00;2.43;;;7.70;99.90;;;;;;4938877;29;20231;-66
2021/03/18 20:42:28;;;;;;;6.30;2.10;;;7.70;99.90;;;;;;4938651;29;20233;-66
2021/03/18 20:44:54;;;;;;;3.83;2.20;;;7.70;99.90;;;;;;4939001;29;20208;-67
2021/03/18 20:47:21;;;;;;;3.57;2.23;;;7.70;99.90;;;;;;4938888;29;20209;-67
2021/03/18 20:49:47;;;;;;;5.20;2.30;;;7.70;99.90;;;;;;4938388;29;20284;-67
2021/03/18 20:52:13;;;;;;;4.30;2.20;;;7.70;99.90;;;;;;4939115;29;20212;-67
2021/03/18 20:54:39;;;;;;;5.80;2.97;;;7.70;99.90;;;;;;4938623;29;20579;-67
2021/03/18 20:57:07;;;;;;;4.13;2.47;;;7.70;99.90;;;;;;4938730;29;20209;-66
2021/03/18 20:59:33;;;;;;;5.97;2.77;;;7.70;99.90;;;;;;4939070;29;20228;-67
2021/03/18 21:02:00;;;;;;;5.20;2.63;;;7.60;99.90;;;;;;4938455;29;20232;-67
2021/03/18 21:04:26;;;;;;;5.23;3.10;;;7.60;99.90;;;;;;4938612;29;20216;-67
2021/03/18 21:06:53;;;;;;;6.83;2.63;;;7.50;99.90;;;;;;4938522;29;20220;-66
2021/03/18 21:09:19;;;;;;;5.60;2.83;;;7.40;99.90;;;;;;4938170;29;20735;-67
2021/03/18 21:11:46;;;;;;;6.40;2.77;;;7.50;99.90;;;;;;4938234;29;20694;-68
2021/03/18 21:14:13;;;;;;;4.93;2.83;;;7.50;99.90;;;;;;4938532;29;20220;-66
2021/03/18 21:16:39;;;;;;;5.97;2.93;;;7.60;99.90;;;;;;4938086;29;20279;-67
2021/03/18 21:19:05;;;;;;;7.23;2.93;;;7.60;99.90;;;;;;4937934;29;20229;-68
2021/03/18 21:21:32;;;;;;;5.93;2.83;;;7.50;99.90;;;;;;4938408;29;20259;-67
2021/03/18 21:23:58;;;;;;;4.03;2.30;;;7.40;99.90;;;;;;4938123;29;20731;-66
2021/03/18 21:26:24;;;;;;;7.33;2.57;;;7.40;99.90;;;;;;4938108;29;20248;-66
2021/03/18 21:28:51;;;;;;;7.23;2.73;;;7.50;99.90;;;;;;4937988;29;20311;-67
2021/03/18 21:31:20;;;;;;;4.47;2.40;;;7.50;99.90;;;;;;4937913;29;20263;-67
2021/03/18 21:33:47;;;;;;;7.13;2.50;;;7.50;99.90;;;;;;4937776;29;20244;-66
2021/03/18 21:36:14;;;;;;;4.10;1.90;;;7.40;99.90;;;;;;4938026;29;20209;-66
2021/03/18 21:38:40;;;;;;;3.63;2.03;;;7.40;99.90;;;;;;4937657;29;20240;-66
2021/03/18 21:41:07;;;;;;;3.37;2.17;;;7.50;99.90;;;;;;4937787;29;20219;-66
2021/03/18 21:43:33;;;;;;;3.87;1.90;;;7.40;99.90;;;;;;4937706;29;20280;-66
2021/03/18 21:46:00;;;;;;;5.27;1.73;;;7.40;99.90;;;;;;4937691;29;20219;-66
2021/03/18 21:48:27;;;;;;;3.00;1.80;;;7.40;99.90;;;;;;4937736;29;20620;-67
2021/03/18 21:50:53;;;;;;;5.37;2.17;;;7.30;99.90;;;;;;4937013;29;20284;-67
2021/03/18 21:53:20;;;;;;;2.80;1.70;;;7.30;99.90;;;;;;4937736;29;20216;-67